createdAt,value
2019-05-13T00:01:43.377Z,100.00
2019-05-13T00:04:14.257Z,100.00
2019-05-13T00:06:53.922Z,100.00
2019-05-13T00:09:19.561Z,100.00
2019-05-13T00:11:50.862Z,100.00
2019-05-13T00:14:24.896Z,100.00
2019-05-13T00:16:56.098Z,100.00
2019-05-13T00:19:27.490Z,100.00
2019-05-13T00:21:59.226Z,100.00
2019-05-13T00:24:30.929Z,100.00
2019-05-13T00:27:03.924Z,100.00
2019-05-13T00:29:35.770Z,100.00
2019-05-13T00:32:07.151Z,100.00
2019-05-13T00:34:38.365Z,100.00
2019-05-13T00:37:11.781Z,100.00
2019-05-13T00:39:44.209Z,100.00
2019-05-13T00:42:18.994Z,100.00
2019-05-13T00:44:50.310Z,100.00
2019-05-13T00:47:23.657Z,100.00
2019-05-13T00:49:54.550Z,100.00
2019-05-13T00:52:25.716Z,100.00
2019-05-13T00:54:57.449Z,100.00
2019-05-13T00:57:28.669Z,100.00
2019-05-13T01:00:03.509Z,100.00
2019-05-13T01:02:35.133Z,100.00
2019-05-13T01:05:06.471Z,100.00
2019-05-13T01:07:37.821Z,100.00
2019-05-13T01:10:10.288Z,100.00
2019-05-13T01:12:43.801Z,100.00
2019-05-13T01:15:16.377Z,100.00
2019-05-13T01:17:50.083Z,100.00
2019-05-13T01:20:23.500Z,100.00
2019-05-13T01:22:54.798Z,100.00
2019-05-13T01:25:26.120Z,100.00
2019-05-13T01:27:57.362Z,100.00
2019-05-13T01:30:29.978Z,100.00
2019-05-13T01:33:01.525Z,100.00
2019-05-13T01:35:34.166Z,100.00
2019-05-13T01:38:05.881Z,100.00
2019-05-13T01:40:37.204Z,100.00
2019-05-13T01:43:08.389Z,100.00
2019-05-13T01:45:40.106Z,100.00
2019-05-13T01:48:13.874Z,100.00
2019-05-13T01:50:44.657Z,100.00
2019-05-13T01:53:15.987Z,100.00
2019-05-13T01:55:49.560Z,100.00
2019-05-13T01:58:23.807Z,100.00
2019-05-13T02:00:55.529Z,100.00
2019-05-13T02:03:26.913Z,100.00
2019-05-13T02:05:58.936Z,100.00
2019-05-13T02:08:30.764Z,100.00
2019-05-13T02:11:04.609Z,100.00
2019-05-13T02:13:36.067Z,100.00
2019-05-13T02:16:07.304Z,100.00
2019-05-13T02:18:38.529Z,100.00
2019-05-13T02:21:09.769Z,100.00
2019-05-13T02:23:41.410Z,100.00
2019-05-13T02:26:13.587Z,100.00
2019-05-13T02:28:44.967Z,100.00
2019-05-13T02:31:25.827Z,100.00
2019-05-13T02:33:52.919Z,100.00
2019-05-13T02:36:25.387Z,100.00
2019-05-13T02:39:02.268Z,100.00
2019-05-13T02:41:34.131Z,100.00
2019-05-13T02:44:06.123Z,100.00
2019-05-13T02:46:37.361Z,100.00
2019-05-13T02:49:08.555Z,100.00
2019-05-13T02:51:42.994Z,100.00
2019-05-13T02:54:12.848Z,100.00
2019-05-13T02:56:44.115Z,100.00
2019-05-13T02:59:15.306Z,100.00
2019-05-13T03:01:46.692Z,100.00
2019-05-13T03:04:18.667Z,100.00
2019-05-13T03:06:52.117Z,100.00
2019-05-13T03:09:23.379Z,100.00
2019-05-13T03:11:54.628Z,100.00
2019-05-13T03:14:25.748Z,100.00
2019-05-13T03:17:12.850Z,100.00
2019-05-13T03:19:43.545Z,100.00
2019-05-13T03:22:14.919Z,100.00
2019-05-13T03:24:46.165Z,100.00
2019-05-13T03:27:20.522Z,100.00
2019-05-13T03:29:54.722Z,100.00
2019-05-13T03:32:34.423Z,100.00
2019-05-13T03:35:00.837Z,100.00
2019-05-13T03:37:34.795Z,100.00
2019-05-13T03:40:05.722Z,100.00
2019-05-13T03:42:42.268Z,100.00
2019-05-13T03:45:13.064Z,100.00
2019-05-13T03:47:46.306Z,100.00
2019-05-13T03:50:17.611Z,100.00
2019-05-13T03:52:52.263Z,100.00
2019-05-13T03:55:23.329Z,100.00
2019-05-13T03:57:55.354Z,100.00
2019-05-13T04:00:26.665Z,100.00
2019-05-13T04:03:02.935Z,100.00
2019-05-13T04:05:52.736Z,100.00
2019-05-13T04:08:24.289Z,100.00
2019-05-13T04:10:56.424Z,100.00
2019-05-13T04:13:28.110Z,100.00
2019-05-13T04:15:59.354Z,100.00
2019-05-13T04:18:31.982Z,100.00
2019-05-13T04:21:03.657Z,100.00
2019-05-13T04:23:35.488Z,100.00
2019-05-13T04:26:07.156Z,100.00
2019-05-13T04:28:38.400Z,100.00
2019-05-13T04:31:09.562Z,100.00
2019-05-13T04:33:42.630Z,100.00
2019-05-13T04:36:14.233Z,100.00
2019-05-13T04:38:46.610Z,100.00
2019-05-13T04:41:17.850Z,100.00
2019-05-13T04:43:49.388Z,100.00
2019-05-13T04:46:22.893Z,100.00
2019-05-13T04:48:53.673Z,100.00
2019-05-13T04:51:25.067Z,100.00
2019-05-13T04:53:57.459Z,100.00
2019-05-13T04:56:28.804Z,100.00
2019-05-13T04:59:02.978Z,100.00
2019-05-13T05:02:05.512Z,100.00
2019-05-13T05:05:08.931Z,100.00
2019-05-13T05:08:32.871Z,100.00
2019-05-13T05:11:32.569Z,100.00
2019-05-13T05:14:38.052Z,100.00
2019-05-13T05:17:58.147Z,100.00
2019-05-13T05:20:41.633Z,100.00
2019-05-13T05:23:39.405Z,100.00
2019-05-13T05:26:47.449Z,100.00
2019-05-13T05:29:46.873Z,100.00
2019-05-13T05:32:51.852Z,100.00
2019-05-13T05:35:52.145Z,100.00
2019-05-13T05:38:46.118Z,100.00
2019-05-13T05:41:21.472Z,100.00
2019-05-13T05:43:56.314Z,100.00
2019-05-13T05:46:32.225Z,100.00
2019-05-13T05:49:07.934Z,100.00
2019-05-13T05:51:41.898Z,100.00
2019-05-13T05:54:14.830Z,100.00
2019-05-13T05:56:48.050Z,100.00
2019-05-13T05:59:22.240Z,100.00
2019-05-13T06:01:56.031Z,100.00
2019-05-13T06:04:32.297Z,100.00
2019-05-13T06:07:04.905Z,100.00
2019-05-13T06:09:36.290Z,100.00
2019-05-13T06:12:07.594Z,100.00
2019-05-13T06:14:42.290Z,100.00
2019-05-13T06:17:14.872Z,100.00
2019-05-13T06:19:47.117Z,100.00
2019-05-13T06:22:18.935Z,100.00
2019-05-13T06:24:52.298Z,100.00
2019-05-13T06:27:23.692Z,100.00
2019-05-13T06:32:32.127Z,100.00
2019-05-13T06:35:03.628Z,100.00
2019-05-13T06:37:34.960Z,100.00
2019-05-13T06:40:07.116Z,100.00
2019-05-13T06:42:38.413Z,100.00
2019-05-13T06:45:12.219Z,100.00
2019-05-13T06:47:42.950Z,100.00
2019-05-13T06:50:14.524Z,100.00
2019-05-13T06:52:46.774Z,100.00
2019-05-13T06:55:18.178Z,100.00
2019-05-13T06:57:51.715Z,100.00
2019-05-13T07:00:23.459Z,100.00
2019-05-13T07:03:02.314Z,100.00
2019-05-13T07:05:33.812Z,100.00
2019-05-13T07:08:05.709Z,100.00
2019-05-13T07:10:37.076Z,100.00
2019-05-13T07:13:11.458Z,100.00
2019-05-13T07:15:45.696Z,100.00
2019-05-13T07:18:17.233Z,100.00
2019-05-13T07:20:49.534Z,100.00
2019-05-13T07:23:22.377Z,100.00
2019-05-13T07:25:54.894Z,100.00
2019-05-13T07:28:26.282Z,100.00
2019-05-13T07:31:02.175Z,100.00
2019-05-13T07:33:35.067Z,99.94
2019-05-13T07:36:08.612Z,96.98
2019-05-13T07:38:41.611Z,97.89
2019-05-13T07:41:16.021Z,98.60
2019-05-13T07:43:48.299Z,98.24
2019-05-13T07:46:22.002Z,98.68
2019-05-13T07:48:53.164Z,96.00
2019-05-13T07:51:24.482Z,94.76
2019-05-13T07:53:55.734Z,95.37
2019-05-13T07:56:28.670Z,95.21
2019-05-13T07:59:01.738Z,96.89
2019-05-13T08:01:34.327Z,96.30
2019-05-13T08:04:05.624Z,97.75
2019-05-13T08:06:37.062Z,98.78
2019-05-13T08:09:12.828Z,98.22
2019-05-13T08:12:02.268Z,97.04
2019-05-13T08:14:21.807Z,96.98
2019-05-13T08:16:53.213Z,97.57
2019-05-13T08:19:24.969Z,97.70
2019-05-13T08:21:56.313Z,96.79
2019-05-13T08:24:27.699Z,97.07
2019-05-13T08:27:02.041Z,95.81
2019-05-13T08:29:33.067Z,95.29
2019-05-13T08:32:04.946Z,93.98
2019-05-13T08:34:37.186Z,94.26
2019-05-13T08:37:08.506Z,94.07
2019-05-13T08:39:41.473Z,94.31
2019-05-13T08:42:19.441Z,93.66
2019-05-13T08:44:46.478Z,92.51
2019-05-13T08:47:18.054Z,91.80
2019-05-13T08:49:51.840Z,90.95
2019-05-13T08:52:23.070Z,88.71
2019-05-13T08:54:54.536Z,89.50
2019-05-13T08:57:25.749Z,88.71
2019-05-13T08:59:57.170Z,88.86
2019-05-13T09:02:32.108Z,88.62
2019-05-13T09:05:12.064Z,88.57
2019-05-13T09:07:43.556Z,85.34
2019-05-13T09:10:15.178Z,85.50
2019-05-13T09:12:46.794Z,85.55
2019-05-13T09:15:18.451Z,86.39
2019-05-13T09:17:51.727Z,85.96
2019-05-13T09:20:22.831Z,86.82
2019-05-13T09:22:54.050Z,83.92
2019-05-13T09:25:25.701Z,83.32
2019-05-13T09:27:57.511Z,83.87
2019-05-13T09:30:31.476Z,81.21
2019-05-13T09:33:02.131Z,81.15
2019-05-13T09:35:34.888Z,80.46
2019-05-13T09:38:06.689Z,80.03
2019-05-13T09:40:39.069Z,80.12
2019-05-13T09:43:11.635Z,79.40
2019-05-13T09:45:43.258Z,79.04
2019-05-13T09:48:16.638Z,78.47
2019-05-13T09:50:51.503Z,78.15
2019-05-13T09:53:22.578Z,77.02
2019-05-13T09:55:55.244Z,76.44
2019-05-13T09:58:29.749Z,72.12
2019-05-13T10:00:59.816Z,73.09
2019-05-13T10:03:33.155Z,71.66
2019-05-13T10:06:04.024Z,70.87
2019-05-13T10:08:35.721Z,70.60
2019-05-13T10:11:06.988Z,70.96
2019-05-13T10:13:38.397Z,71.67
2019-05-13T10:16:12.347Z,69.49
2019-05-13T10:18:43.283Z,69.45
2019-05-13T10:21:14.716Z,67.17
2019-05-13T10:23:46.068Z,65.83
2019-05-13T10:26:17.243Z,64.80
2019-05-13T10:28:49.376Z,63.11
2019-05-13T10:31:22.038Z,59.51
2019-05-13T10:33:53.716Z,57.26
2019-05-13T10:36:25.021Z,56.65
2019-05-13T10:38:57.714Z,58.79
2019-05-13T10:41:29.208Z,60.98
2019-05-13T10:44:03.109Z,60.26
2019-05-13T10:46:34.896Z,58.98
2019-05-13T10:49:06.391Z,58.08
2019-05-13T10:51:37.644Z,56.09
2019-05-13T10:54:09.841Z,56.99
2019-05-13T10:56:43.072Z,58.49
2019-05-13T10:59:13.995Z,57.03
2019-05-13T11:01:45.235Z,53.74
2019-05-13T11:04:17.318Z,54.19
2019-05-13T11:08:45.889Z,51.20
2019-05-13T11:11:17.306Z,52.29
2019-05-13T11:13:56.438Z,52.65
2019-05-13T11:16:22.541Z,52.78
2019-05-13T11:18:55.047Z,53.31
2019-05-13T11:21:26.421Z,52.92
2019-05-13T11:23:58.756Z,52.87
2019-05-13T11:26:35.923Z,54.50
2019-05-13T11:29:03.031Z,54.33
2019-05-13T11:31:34.721Z,52.71
2019-05-13T11:34:06.046Z,52.49
2019-05-13T11:36:37.602Z,52.27
2019-05-13T11:39:12.945Z,52.86
2019-05-13T11:41:43.046Z,50.36
2019-05-13T11:44:17.153Z,50.87
2019-05-13T11:46:48.758Z,49.53
2019-05-13T11:49:20.156Z,48.12
2019-05-13T11:51:52.432Z,49.39
2019-05-13T11:54:24.190Z,47.61
2019-05-13T11:57:01.794Z,46.30
2019-05-13T11:59:32.965Z,46.52
2019-05-13T12:02:05.067Z,47.27
2019-05-13T12:04:36.769Z,47.38
2019-05-13T12:07:08.646Z,46.93
2019-05-13T12:09:39.924Z,46.37
2019-05-13T12:12:13.050Z,47.69
2019-05-13T12:15:16.209Z,48.64
2019-05-13T12:17:18.952Z,50.21
2019-05-13T12:19:54.011Z,46.82
2019-05-13T12:22:23.726Z,48.36
2019-05-13T12:24:55.260Z,51.19
2019-05-13T12:27:26.588Z,53.02
2019-05-13T12:29:57.900Z,51.29
2019-05-13T12:32:32.091Z,53.31
2019-05-13T12:35:03.608Z,51.55
2019-05-13T12:37:36.803Z,51.44
2019-05-13T12:40:08.646Z,50.07
2019-05-13T12:42:46.254Z,49.37
2019-05-13T12:45:14.531Z,48.39
2019-05-13T12:47:45.949Z,49.30
2019-05-13T12:50:17.818Z,48.69
2019-05-13T12:52:51.456Z,53.97
2019-05-13T12:55:22.552Z,52.29
2019-05-13T12:57:53.922Z,52.78
2019-05-13T13:00:25.161Z,55.77
2019-05-13T13:02:56.791Z,55.54
2019-05-13T13:05:33.277Z,63.14
2019-05-13T13:08:18.533Z,67.25
2019-05-13T13:10:34.733Z,68.39
2019-05-13T13:13:06.387Z,69.22
2019-05-13T13:15:42.220Z,70.62
2019-05-13T13:18:14.280Z,72.19
2019-05-13T13:20:44.173Z,71.89
2019-05-13T13:23:15.675Z,75.41
2019-05-13T13:26:13.719Z,74.92
2019-05-13T13:28:38.941Z,75.10
2019-05-13T13:31:13.280Z,76.15
2019-05-13T13:33:45.426Z,76.52
2019-05-13T13:36:17.717Z,77.20
2019-05-13T13:38:48.940Z,78.51
2019-05-13T13:41:22.688Z,78.29
2019-05-13T13:43:54.077Z,77.59
2019-05-13T13:46:37.004Z,77.66
2019-05-13T13:48:58.837Z,79.77
2019-05-13T13:51:34.066Z,69.81
2019-05-13T13:54:05.228Z,66.92
2019-05-13T13:56:36.782Z,66.72
2019-05-13T13:59:08.134Z,65.44
2019-05-13T14:01:39.948Z,64.25
2019-05-13T14:04:16.537Z,73.69
2019-05-13T14:09:23.091Z,77.60
2019-05-13T14:11:55.035Z,72.55
2019-05-13T14:14:26.449Z,65.39
2019-05-13T14:16:57.772Z,63.85
2019-05-13T14:19:29.089Z,63.47
2019-05-13T14:22:01.696Z,67.74
2019-05-13T14:27:24.380Z,76.80
2019-05-13T14:29:56.758Z,65.60
2019-05-13T14:32:32.115Z,66.79
2019-05-13T14:35:08.556Z,65.67
2019-05-13T14:37:38.852Z,71.78
2019-05-13T14:40:12.151Z,79.40
2019-05-13T14:42:47.462Z,80.21
2019-05-13T14:45:21.365Z,78.83
2019-05-13T14:47:52.378Z,80.48
2019-05-13T14:50:43.139Z,77.66
2019-05-13T14:53:15.053Z,78.34
2019-05-13T14:55:46.944Z,78.69
2019-05-13T14:58:21.747Z,80.31
2019-05-13T15:01:10.370Z,80.61
2019-05-13T15:03:25.307Z,80.80
2019-05-13T15:05:57.740Z,80.43
2019-05-13T15:08:32.517Z,78.25
2019-05-13T15:11:02.973Z,78.99
2019-05-13T15:13:34.833Z,78.53
2019-05-13T15:16:06.357Z,78.43
2019-05-13T15:18:37.650Z,67.07
2019-05-13T15:21:08.910Z,64.86
2019-05-13T15:23:42.296Z,62.91
2019-05-13T15:26:13.025Z,63.55
2019-05-13T15:28:44.364Z,62.17
2019-05-13T15:31:16.165Z,60.90
2019-05-13T15:33:48.499Z,61.07
2019-05-13T15:36:19.722Z,58.87
2019-05-13T15:38:52.026Z,58.96
2019-05-13T15:42:02.812Z,60.40
2019-05-13T15:44:34.292Z,62.13
2019-05-13T15:47:22.339Z,61.16
2019-05-13T15:49:39.529Z,60.82
2019-05-13T15:52:14.060Z,60.00
2019-05-13T15:54:47.491Z,60.81
2019-05-13T15:57:21.224Z,59.58
2019-05-13T15:59:52.362Z,61.30
2019-05-13T16:02:24.197Z,58.68
2019-05-13T16:05:01.162Z,59.47
2019-05-13T16:07:29.964Z,59.35
2019-05-13T16:10:02.100Z,59.70
2019-05-13T16:12:36.123Z,59.29
2019-05-13T16:15:12.401Z,61.36
2019-05-13T16:17:45.018Z,57.74
2019-05-13T16:20:17.702Z,58.49
2019-05-13T16:22:52.989Z,59.32
2019-05-13T16:25:27.289Z,60.68
2019-05-13T16:27:58.625Z,60.43
2019-05-13T16:30:32.095Z,60.59
2019-05-13T16:33:03.580Z,59.33
2019-05-13T16:35:35.383Z,60.00
2019-05-13T16:38:08.017Z,59.99
2019-05-13T16:40:39.423Z,59.64
2019-05-13T16:43:12.807Z,60.89
2019-05-13T16:45:43.834Z,63.18
2019-05-13T16:48:15.167Z,65.29
2019-05-13T16:50:46.549Z,66.98
2019-05-13T16:53:25.198Z,68.05
2019-05-13T16:55:53.796Z,69.50
2019-05-13T16:58:26.046Z,69.73
2019-05-13T17:00:58.358Z,70.54
2019-05-13T17:03:31.922Z,71.33
2019-05-13T17:06:03.240Z,73.55
2019-05-13T17:08:37.135Z,73.00
2019-05-13T17:11:11.864Z,73.22
2019-05-13T17:13:42.981Z,71.75
2019-05-13T17:16:14.281Z,72.24
2019-05-13T17:18:45.705Z,72.69
2019-05-13T17:21:17.053Z,72.72
2019-05-13T17:23:48.491Z,72.58
2019-05-13T17:26:21.979Z,71.95
2019-05-13T17:28:53.459Z,71.78
2019-05-13T17:31:32.533Z,72.75
2019-05-13T17:34:06.954Z,72.42
2019-05-13T17:36:38.209Z,72.23
2019-05-13T17:39:12.583Z,72.92
2019-05-13T17:41:43.320Z,73.99
2019-05-13T17:44:14.851Z,73.90
2019-05-13T17:46:47.947Z,73.83
2019-05-13T17:49:19.243Z,74.10
2019-05-13T17:51:51.657Z,73.38
2019-05-13T17:54:24.937Z,73.69
2019-05-13T17:56:56.717Z,72.87
2019-05-13T17:59:27.939Z,73.11
2019-05-13T18:01:59.164Z,73.59
2019-05-13T18:04:31.406Z,74.29
2019-05-13T18:07:03.179Z,74.69
2019-05-13T18:09:34.631Z,74.71
2019-05-13T18:12:08.139Z,75.18
2019-05-13T18:14:41.197Z,75.91
2019-05-13T18:17:12.743Z,75.31
2019-05-13T18:19:43.986Z,75.81
2019-05-13T18:22:15.199Z,76.15
2019-05-13T18:24:46.731Z,75.85
2019-05-13T18:27:19.303Z,76.44
2019-05-13T18:29:51.326Z,77.39
2019-05-13T18:32:22.748Z,78.05
2019-05-13T18:34:54.096Z,79.66
2019-05-13T18:37:25.575Z,82.48
2019-05-13T18:39:56.789Z,83.81
2019-05-13T18:42:31.552Z,84.71
2019-05-13T18:45:02.529Z,84.71
2019-05-13T18:47:35.391Z,85.48
2019-05-13T18:50:11.852Z,86.26
2019-05-13T18:52:46.709Z,86.69
2019-05-13T18:55:18.226Z,87.44
2019-05-13T18:57:51.687Z,88.02
2019-05-13T19:00:23.268Z,88.20
2019-05-13T19:02:56.535Z,89.01
2019-05-13T19:05:27.784Z,89.94
2019-05-13T19:08:01.686Z,89.95
2019-05-13T19:10:32.477Z,90.61
2019-05-13T19:13:04.922Z,91.08
2019-05-13T19:15:36.456Z,91.85
2019-05-13T19:18:08.170Z,92.28
2019-05-13T19:20:41.759Z,93.05
2019-05-13T19:23:12.739Z,93.27
2019-05-13T19:25:44.493Z,94.08
2019-05-13T19:28:16.786Z,94.52
2019-05-13T19:30:48.010Z,95.19
2019-05-13T19:33:21.922Z,96.15
2019-05-13T19:35:52.685Z,97.25
2019-05-13T19:38:25.567Z,98.28
2019-05-13T19:41:01.612Z,98.55
2019-05-13T19:43:32.452Z,99.08
2019-05-13T19:46:03.807Z,99.34
2019-05-13T19:48:35.177Z,99.98
2019-05-13T19:51:06.597Z,100.00
2019-05-13T19:53:38.008Z,100.00
2019-05-13T19:56:11.744Z,100.00
2019-05-13T19:58:42.457Z,100.00
2019-05-13T20:01:15.302Z,100.00
2019-05-13T20:03:47.061Z,100.00
2019-05-13T20:06:18.451Z,100.00
2019-05-13T20:08:51.742Z,100.00
2019-05-13T20:11:22.866Z,100.00
2019-05-13T20:13:54.298Z,100.00
2019-05-13T20:16:25.708Z,100.00
2019-05-13T20:18:56.996Z,100.00
2019-05-13T20:21:28.343Z,100.00
2019-05-13T20:23:59.960Z,100.00
2019-05-13T20:26:32.228Z,100.00
2019-05-13T20:29:04.229Z,100.00
2019-05-13T20:31:35.756Z,100.00
2019-05-13T20:34:17.738Z,100.00
2019-05-13T20:36:51.594Z,100.00
2019-05-13T20:39:25.291Z,100.00
2019-05-13T20:42:02.379Z,100.00
2019-05-13T20:44:33.626Z,100.00
2019-05-13T20:47:04.857Z,100.00
2019-05-13T20:49:36.138Z,100.00
2019-05-13T20:52:07.309Z,100.00
2019-05-13T20:54:38.552Z,100.00
2019-05-13T20:57:09.694Z,100.00
2019-05-13T20:59:41.489Z,100.00
2019-05-13T21:02:12.944Z,100.00
2019-05-13T21:04:44.153Z,100.00
2019-05-13T21:07:17.376Z,100.00
2019-05-13T21:09:51.129Z,100.00
2019-05-13T21:12:23.098Z,100.00
2019-05-13T21:14:54.426Z,100.00
2019-05-13T21:17:26.592Z,100.00
2019-05-13T21:20:01.056Z,100.00
2019-05-13T21:22:31.716Z,100.00
2019-05-13T21:25:04.705Z,100.00
2019-05-13T21:27:36.564Z,100.00
2019-05-13T21:30:09.185Z,100.00
2019-05-13T21:32:40.806Z,100.00
2019-05-13T21:35:12.644Z,100.00
2019-05-13T21:37:44.090Z,100.00
2019-05-13T21:40:18.803Z,100.00
2019-05-13T21:42:52.455Z,100.00
2019-05-13T21:45:27.072Z,100.00
2019-05-13T21:47:59.089Z,100.00
2019-05-13T21:50:36.779Z,100.00
2019-05-13T21:53:03.702Z,100.00
2019-05-13T21:55:35.276Z,100.00
2019-05-13T21:58:06.493Z,100.00
2019-05-13T22:00:47.884Z,100.00
2019-05-13T22:03:19.980Z,100.00
2019-05-13T22:05:51.677Z,100.00
2019-05-13T22:08:23.417Z,100.00
2019-05-13T22:10:54.736Z,100.00
2019-05-13T22:13:27.230Z,100.00
2019-05-13T22:16:01.635Z,100.00
2019-05-13T22:18:32.406Z,100.00
2019-05-13T22:21:04.165Z,100.00
2019-05-13T22:23:36.063Z,100.00
2019-05-13T22:26:07.858Z,100.00
2019-05-13T22:28:39.175Z,100.00
2019-05-13T22:31:11.657Z,100.00
2019-05-13T22:33:46.127Z,100.00
2019-05-13T22:36:17.472Z,100.00
2019-05-13T22:38:48.718Z,100.00
2019-05-13T22:41:22.220Z,100.00
2019-05-13T22:43:58.483Z,100.00
2019-05-13T22:48:04.549Z,100.00
2019-05-13T22:50:36.535Z,100.00
2019-05-13T22:53:09.233Z,100.00
2019-05-13T22:55:41.988Z,100.00
2019-05-13T22:58:14.201Z,100.00
2019-05-13T23:00:48.200Z,100.00
2019-05-13T23:03:20.748Z,100.00
2019-05-13T23:05:52.367Z,100.00
2019-05-13T23:08:24.189Z,100.00
2019-05-13T23:10:56.998Z,100.00
2019-05-13T23:13:28.760Z,100.00
2019-05-13T23:16:02.438Z,100.00
2019-05-13T23:18:33.503Z,100.00
2019-05-13T23:21:04.880Z,100.00
2019-05-13T23:23:36.203Z,100.00
2019-05-13T23:26:07.892Z,100.00
2019-05-13T23:28:41.441Z,100.00
2019-05-13T23:31:16.956Z,100.00
2019-05-13T23:33:48.507Z,100.00
2019-05-13T23:36:21.096Z,100.00
2019-05-13T23:38:52.454Z,100.00
2019-05-13T23:41:24.098Z,100.00
2019-05-13T23:43:56.396Z,100.00
2019-05-13T23:46:27.646Z,100.00
2019-05-13T23:49:01.262Z,100.00
2019-05-13T23:51:36.465Z,100.00
2019-05-13T23:54:12.104Z,100.00
2019-05-13T23:56:43.199Z,100.00
2019-05-13T23:59:14.689Z,100.00
